createdAt,value
2023-04-20T00:00:36.777Z,10
2023-04-20T00:01:36.812Z,10.3571
2023-04-20T00:02:36.972Z,9.92857
2023-04-20T00:03:37.087Z,10.5
2023-04-20T00:04:37.006Z,10.4286
2023-04-20T00:05:36.984Z,10.6429
2023-04-20T00:06:37.020Z,10.8571
2023-04-20T00:07:37.066Z,10.4286
2023-04-20T00:08:37.108Z,10.4286
2023-04-20T00:09:37.137Z,9.71429
2023-04-20T00:10:37.182Z,9.42857
2023-04-20T00:11:37.226Z,10.3571
2023-04-20T00:12:37.261Z,9.85714
2023-04-20T00:13:37.298Z,10
2023-04-20T00:14:37.336Z,10.6429
2023-04-20T00:15:37.379Z,10.1429
2023-04-20T00:16:37.482Z,10.3571
2023-04-20T00:17:37.503Z,9.64286
2023-04-20T00:18:37.510Z,9.85714
2023-04-20T00:19:37.550Z,9.35714
2023-04-20T00:20:37.588Z,9.64286
2023-04-20T00:21:37.626Z,10.2143
2023-04-20T00:22:37.679Z,9.85714
2023-04-20T00:23:37.705Z,9.5
2023-04-20T00:24:37.739Z,9.35714
2023-04-20T00:25:37.786Z,9.85714
2023-04-20T00:26:37.831Z,10.3571
2023-04-20T00:27:37.873Z,9.14286
2023-04-20T00:28:37.917Z,9
2023-04-20T00:29:37.960Z,8.71429
2023-04-20T00:30:37.995Z,9.42857
2023-04-20T00:31:38.037Z,9.14286
2023-04-20T00:32:38.155Z,9.42857
2023-04-20T00:33:38.127Z,9.42857
2023-04-20T00:34:38.165Z,8.71429
2023-04-20T00:35:38.205Z,8.64286
2023-04-20T00:36:38.251Z,9.14286
2023-04-20T00:37:38.284Z,8.14286
2023-04-20T00:38:38.334Z,9.21429
2023-04-20T00:39:38.374Z,8.71429
2023-04-20T00:40:38.416Z,8.85714
2023-04-20T00:41:38.483Z,8.85714
2023-04-20T00:42:38.522Z,8.5
2023-04-20T00:43:38.547Z,8.5
2023-04-20T00:44:38.645Z,8.35714
2023-04-20T00:45:38.629Z,8.21429
2023-04-20T00:46:38.771Z,8.5
2023-04-20T00:47:38.753Z,8
2023-04-20T00:48:38.746Z,8.71429
2023-04-20T00:49:38.788Z,8.64286
2023-04-20T00:50:38.860Z,8.85714
2023-04-20T00:51:38.888Z,7.5
2023-04-20T00:52:38.927Z,8.5
2023-04-20T00:53:38.962Z,8.14286
2023-04-20T00:54:39.009Z,7.42857
2023-04-20T00:55:39.047Z,7.42857
2023-04-20T00:56:39.081Z,7.5
2023-04-20T00:57:39.157Z,7.92857
2023-04-20T00:58:39.172Z,7.64286
2023-04-20T00:59:39.213Z,8
2023-04-20T01:00:39.248Z,8.71429
2023-04-20T01:01:39.352Z,8.64286
2023-04-20T01:02:39.416Z,8.35714
2023-04-20T01:03:39.687Z,7.85714
2023-04-20T01:04:39.543Z,7.64286
2023-04-20T01:05:39.459Z,8.14286
2023-04-20T01:06:39.518Z,8
2023-04-20T01:07:39.555Z,8.14286
2023-04-20T01:08:39.580Z,8.21429
2023-04-20T01:09:39.622Z,7.92857
2023-04-20T01:10:39.674Z,7.92857
2023-04-20T01:11:39.721Z,8.14286
2023-04-20T01:12:39.748Z,7.92857
2023-04-20T01:13:39.789Z,8.64286
2023-04-20T01:14:39.832Z,8.5
2023-04-20T01:15:39.914Z,8.14286
2023-04-20T01:16:39.915Z,7.71429
2023-04-20T01:17:40.165Z,8.14286
2023-04-20T01:18:39.992Z,8.21429
2023-04-20T01:19:40.030Z,8.21429
2023-04-20T01:20:40.084Z,7.85714
2023-04-20T01:21:40.113Z,8
2023-04-20T01:22:40.165Z,8.64286
2023-04-20T01:23:40.205Z,8.64286
2023-04-20T01:24:40.358Z,9.21429
2023-04-20T01:25:40.289Z,8.71429
2023-04-20T01:26:40.322Z,8.21429
2023-04-20T01:27:40.356Z,8.21429
2023-04-20T01:28:40.415Z,7.85714
2023-04-20T01:29:40.449Z,8.5
2023-04-20T01:30:40.500Z,8.35714
2023-04-20T01:31:40.658Z,8.42857
2023-04-20T01:32:40.635Z,8.64286
2023-04-20T01:33:40.620Z,8
2023-04-20T01:34:40.661Z,8.5
2023-04-20T01:35:40.701Z,8
2023-04-20T01:36:40.748Z,8
2023-04-20T01:37:40.805Z,8.92857
2023-04-20T01:38:40.826Z,8.42857
2023-04-20T01:39:40.947Z,8.5
2023-04-20T01:40:40.897Z,8.71429
2023-04-20T01:41:40.961Z,7.92857
2023-04-20T01:42:40.977Z,8.35714
2023-04-20T01:43:41.026Z,8.14286
2023-04-20T01:44:41.072Z,9
2023-04-20T01:45:41.109Z,9
2023-04-20T01:46:41.176Z,9.14286
2023-04-20T01:47:41.245Z,8.85714
2023-04-20T01:48:41.226Z,9
2023-04-20T01:49:41.261Z,8.92857
2023-04-20T01:50:41.331Z,9
2023-04-20T01:51:41.356Z,8.85714
2023-04-20T01:52:41.399Z,8.5
2023-04-20T01:53:41.436Z,9.35714
2023-04-20T01:54:41.480Z,9.21429
2023-04-20T01:55:41.527Z,9
2023-04-20T01:56:41.563Z,9.14286
2023-04-20T01:57:41.605Z,9.21429
2023-04-20T01:58:41.650Z,9.14286
2023-04-20T01:59:41.686Z,9.5
2023-04-20T02:00:41.784Z,9.14286
2023-04-20T02:01:41.773Z,9.14286
2023-04-20T02:02:42.047Z,8.21429
2023-04-20T02:03:42.113Z,9.71429
2023-04-20T02:04:41.908Z,9.21429
2023-04-20T02:05:41.948Z,9.92857
2023-04-20T02:06:41.990Z,9.14286
2023-04-20T02:07:42.037Z,8.85714
2023-04-20T02:08:42.087Z,8.85714
2023-04-20T02:09:42.134Z,9.14286
2023-04-20T02:10:42.161Z,9.42857
2023-04-20T02:11:42.205Z,9
2023-04-20T02:12:42.237Z,8.71429
2023-04-20T02:13:42.276Z,9.85714
2023-04-20T02:14:42.329Z,10.4286
2023-04-20T02:15:42.370Z,9.71429
2023-04-20T02:16:42.431Z,9.5
2023-04-20T02:17:42.473Z,10.3571
2023-04-20T02:18:42.494Z,9.64286
2023-04-20T02:19:42.536Z,9.71429
2023-04-20T02:20:42.577Z,10.3571
2023-04-20T02:21:42.655Z,10.1429
2023-04-20T02:22:42.646Z,10.7143
2023-04-20T02:23:42.702Z,9.71429
2023-04-20T02:24:42.729Z,10.4286
2023-04-20T02:25:42.759Z,10.3571
2023-04-20T02:26:42.802Z,9.71429
2023-04-20T02:27:42.845Z,9.92857
2023-04-20T02:28:42.882Z,10
2023-04-20T02:29:42.924Z,9.71429
2023-04-20T02:30:42.960Z,9.92857
2023-04-20T02:31:43.084Z,10.4286
2023-04-20T02:32:43.071Z,10.1429
2023-04-20T02:33:43.093Z,10.1429
2023-04-20T02:34:43.128Z,10.1429
2023-04-20T02:35:43.172Z,10.3571
2023-04-20T02:36:43.210Z,9.21429
2023-04-20T02:37:43.257Z,10.4286
2023-04-20T02:38:43.307Z,11.1429
2023-04-20T02:39:43.350Z,9.92857
2023-04-20T02:40:43.387Z,10.3571
2023-04-20T02:41:43.463Z,10.2143
2023-04-20T02:42:43.484Z,10.6429
2023-04-20T02:43:43.538Z,10.8571
2023-04-20T02:44:43.556Z,9.92857
2023-04-20T02:45:43.594Z,10.4286
2023-04-20T02:46:43.666Z,10.6429
2023-04-20T02:47:43.767Z,11.6429
2023-04-20T02:48:43.721Z,11.4286
2023-04-20T02:49:43.753Z,12.1429
2023-04-20T02:50:43.805Z,11
2023-04-20T02:51:43.845Z,11.4286
2023-04-20T02:52:43.893Z,10.8571
2023-04-20T02:53:43.940Z,10.9286
2023-04-20T02:54:43.977Z,10.4286
2023-04-20T02:55:44.011Z,11.2143
2023-04-20T02:56:44.063Z,11.7143
2023-04-20T02:57:44.093Z,11.4286
2023-04-20T02:58:44.131Z,12
2023-04-20T02:59:44.191Z,11
2023-04-20T03:00:44.215Z,11.2143
2023-04-20T03:01:44.309Z,11.7143
2023-04-20T03:02:44.411Z,11.1429
2023-04-20T03:03:44.466Z,11.1429
2023-04-20T03:04:44.530Z,11.4286
2023-04-20T03:05:44.415Z,10.9286
2023-04-20T03:06:44.454Z,11.2143
2023-04-20T03:07:44.500Z,11.3571
2023-04-20T03:08:44.547Z,11.2143
2023-04-20T03:09:44.582Z,11.1429
2023-04-20T03:10:44.633Z,11.6429
2023-04-20T03:11:44.675Z,11.4286
2023-04-20T03:12:44.712Z,10.4286
2023-04-20T03:13:44.742Z,10.6429
2023-04-20T03:14:44.789Z,10.6429
2023-04-20T03:15:44.841Z,10.9286
2023-04-20T03:16:44.954Z,11
2023-04-20T03:17:44.960Z,11.4286
2023-04-20T03:18:44.961Z,11.9286
2023-04-20T03:19:45.001Z,11.2143
2023-04-20T03:20:45.038Z,11.8571
2023-04-20T03:21:45.084Z,11.7143
2023-04-20T03:22:45.123Z,12.3571
2023-04-20T03:23:45.171Z,11.6429
2023-04-20T03:24:45.212Z,11.7143
2023-04-20T03:25:45.257Z,11.7143
2023-04-20T03:26:45.293Z,12.1429
2023-04-20T03:27:45.335Z,13.2143
2023-04-20T03:28:45.386Z,13
2023-04-20T03:29:45.427Z,13.5
2023-04-20T03:30:45.464Z,13.3571
2023-04-20T03:31:45.559Z,12.9286
2023-04-20T03:32:45.579Z,13.4286
2023-04-20T03:33:45.580Z,13.9286
2023-04-20T03:34:45.622Z,12.2143
2023-04-20T03:35:45.663Z,13.4286
2023-04-20T03:36:45.701Z,12.6429
2023-04-20T03:37:45.769Z,13.2143
2023-04-20T03:38:45.782Z,13
2023-04-20T03:39:45.814Z,12.9286
2023-04-20T03:40:45.864Z,13.3571
2023-04-20T03:41:45.899Z,12.9286
2023-04-20T03:42:45.959Z,13.7143
2023-04-20T03:43:45.989Z,13
2023-04-20T03:44:46.025Z,12.8571
2023-04-20T03:45:46.125Z,13.2143
2023-04-20T03:46:46.120Z,13.3571
2023-04-20T03:47:46.174Z,13.4286
2023-04-20T03:48:46.199Z,13.2143
2023-04-20T03:49:46.243Z,12.9286
2023-04-20T03:50:46.282Z,13.2143
2023-04-20T03:51:46.323Z,13.5
2023-04-20T03:52:46.458Z,14.4286
2023-04-20T03:53:46.480Z,13.3571
2023-04-20T03:54:46.543Z,14.3571
2023-04-20T03:55:46.503Z,13.4286
2023-04-20T03:56:46.586Z,13.6429
2023-04-20T03:57:46.575Z,13.5
2023-04-20T03:58:46.613Z,13.7143
2023-04-20T03:59:46.661Z,13.7143
2023-04-20T04:00:46.692Z,13.2143
2023-04-20T04:01:46.743Z,13.5
2023-04-20T04:02:46.974Z,13.9286
2023-04-20T04:03:47.038Z,12.4286
2023-04-20T04:04:47.047Z,13.5
2023-04-20T04:05:46.923Z,12.9286
2023-04-20T04:06:46.942Z,13.6429
2023-04-20T04:07:47.000Z,14.4286
2023-04-20T04:08:47.024Z,14.4286
2023-04-20T04:09:47.072Z,14.3571
2023-04-20T04:10:47.100Z,13.7143
2023-04-20T04:11:47.153Z,14.5
2023-04-20T04:12:47.193Z,12.9286
2023-04-20T04:13:47.229Z,13.9286
2023-04-20T04:14:47.276Z,13.8571
2023-04-20T04:15:47.317Z,14
2023-04-20T04:16:47.361Z,13.5
2023-04-20T04:17:47.434Z,13.9286
2023-04-20T04:18:47.445Z,14.4286
2023-04-20T04:19:47.469Z,14
2023-04-20T04:20:47.626Z,13.7143
2023-04-20T04:22:47.598Z,13.6429
2023-04-20T04:23:47.631Z,13.7143
2023-04-20T04:24:47.667Z,14.1429
2023-04-20T04:25:47.716Z,14.3571
2023-04-20T04:26:47.759Z,14.4286
2023-04-20T04:27:47.800Z,14.4286
2023-04-20T04:28:47.839Z,14.9286
2023-04-20T04:29:47.869Z,14.5
2023-04-20T04:30:47.920Z,14.1429
2023-04-20T04:31:48.059Z,14.2143
2023-04-20T04:32:48.048Z,14
2023-04-20T04:33:48.048Z,14.5
2023-04-20T04:34:48.077Z,13.7143
2023-04-20T04:35:48.149Z,15.7143
2023-04-20T04:36:48.174Z,15.2143
2023-04-20T04:37:48.208Z,15.3571
2023-04-20T04:38:48.237Z,17.9286
2023-04-20T04:39:48.289Z,19.4286
2023-04-20T04:40:48.329Z,18.9286
2023-04-20T04:41:48.367Z,19
2023-04-20T04:42:48.400Z,21.1429
2023-04-20T04:43:48.447Z,20.1429
2023-04-20T04:44:48.493Z,19.3571
2023-04-20T04:45:48.515Z,19.8571
2023-04-20T04:46:48.577Z,18.1429
2023-04-20T04:47:48.670Z,20.6429
2023-04-20T04:48:48.639Z,20.7143
2023-04-20T04:49:48.674Z,19.8571
2023-04-20T04:50:48.727Z,19.5
2023-04-20T04:51:48.767Z,19.6429
2023-04-20T04:52:48.799Z,19.9286
2023-04-20T04:53:48.838Z,19.6429
2023-04-20T04:54:48.888Z,19.8571
2023-04-20T04:55:48.924Z,21.1429
2023-04-20T04:56:48.971Z,20.1429
2023-04-20T04:57:49.014Z,19.8571
2023-04-20T04:58:49.058Z,18.5
2023-04-20T04:59:49.103Z,18
2023-04-20T05:00:49.136Z,18.9286
2023-04-20T05:01:49.240Z,17.8571
2023-04-20T05:02:49.361Z,20.6429
2023-04-20T05:03:49.377Z,20.2143
2023-04-20T05:04:49.398Z,18.8571
2023-04-20T05:05:49.336Z,20.2143
2023-04-20T05:06:49.385Z,19.1429
2023-04-20T05:07:49.435Z,19.3571
2023-04-20T05:08:49.478Z,19.4286
2023-04-20T05:09:49.534Z,19.2143
2023-04-20T05:10:49.543Z,19.3571
2023-04-20T05:11:49.572Z,20.8571
2023-04-20T05:12:49.618Z,21
2023-04-20T05:13:49.652Z,20.7143
2023-04-20T05:14:49.694Z,20.1429
2023-04-20T05:15:49.732Z,18.7143
2023-04-20T05:16:49.765Z,20.6429
2023-04-20T05:17:49.967Z,20
2023-04-20T05:18:49.852Z,19.7143
2023-04-20T05:19:49.901Z,18.7143
2023-04-20T05:20:49.955Z,18.4286
2023-04-20T05:21:49.987Z,18.6429
2023-04-20T05:22:50.000Z,18.8571
2023-04-20T05:23:50.047Z,18.4286
2023-04-20T05:24:50.090Z,18.8571
2023-04-20T05:25:50.143Z,18.3571
2023-04-20T05:26:50.177Z,18.1429
2023-04-20T05:27:50.225Z,17.9286
2023-04-20T05:28:50.254Z,17.8571
2023-04-20T05:29:50.287Z,17.5
2023-04-20T05:30:50.325Z,17.8571
2023-04-20T05:31:50.411Z,17
2023-04-20T05:32:51.827Z,17
2023-04-20T05:33:50.444Z,17.7143
2023-04-20T05:34:50.496Z,18
2023-04-20T05:35:50.654Z,17.4286
2023-04-20T05:37:50.604Z,17.8571
2023-04-20T05:38:50.652Z,17.2143
2023-04-20T05:39:50.677Z,17.5
2023-04-20T05:40:50.781Z,16.2143
2023-04-20T05:41:50.752Z,16.1429
2023-04-20T05:42:50.804Z,17.5
2023-04-20T05:43:50.847Z,17.3571
2023-04-20T05:44:50.880Z,16.3571
2023-04-20T05:45:50.946Z,16.9286
2023-04-20T05:46:50.969Z,17
2023-04-20T05:47:51.024Z,18.8571
2023-04-20T05:48:51.078Z,17.5
2023-04-20T05:49:51.097Z,17.1429
2023-04-20T05:50:51.124Z,17.9286
2023-04-20T05:51:51.154Z,18.2143
2023-04-20T05:52:51.199Z,16.8571
2023-04-20T05:53:51.235Z,17.2143
2023-04-20T05:54:51.271Z,17.3571
2023-04-20T05:55:51.346Z,18
2023-04-20T05:56:51.336Z,17.6429
2023-04-20T05:57:51.383Z,16.7143
2023-04-20T05:58:51.425Z,18.4286
2023-04-20T05:59:51.477Z,17.4286
2023-04-20T06:00:51.505Z,16.3571
2023-04-20T06:01:51.555Z,17.2143
2023-04-20T06:02:51.790Z,16.3571
2023-04-20T06:03:51.803Z,16.5
2023-04-20T06:04:51.714Z,16.3571
2023-04-20T06:05:51.704Z,17.2143
2023-04-20T06:06:51.730Z,18.1429
2023-04-20T06:07:51.793Z,17.7143
2023-04-20T06:08:51.821Z,17.1429
2023-04-20T06:09:51.862Z,16.7143
2023-04-20T06:10:51.902Z,17
2023-04-20T06:11:51.936Z,16.7143
2023-04-20T06:12:51.979Z,16.8571
2023-04-20T06:13:52.028Z,16.8571
2023-04-20T06:14:52.044Z,17.5
2023-04-20T06:15:52.121Z,15.9286
2023-04-20T06:16:52.137Z,16.5
2023-04-20T06:17:52.223Z,17.3571
2023-04-20T06:18:52.216Z,16.7143
2023-04-20T06:19:52.262Z,16.7143
2023-04-20T06:20:52.324Z,16.8571
2023-04-20T06:21:52.355Z,16.9286
2023-04-20T06:22:52.390Z,17.7143
2023-04-20T06:23:52.435Z,16.8571
2023-04-20T06:24:52.464Z,16.3571
2023-04-20T06:25:52.496Z,16.6429
2023-04-20T06:26:52.541Z,17.3571
2023-04-20T06:27:53.117Z,17.5
2023-04-20T06:28:52.630Z,17.2143
2023-04-20T06:29:52.662Z,16.5
2023-04-20T06:30:52.746Z,17.6429
2023-04-20T06:31:52.794Z,16.8571
2023-04-20T06:32:52.843Z,16.9286
2023-04-20T06:33:52.825Z,17.1429
2023-04-20T06:34:52.862Z,17.2143
2023-04-20T06:35:52.912Z,16.4286
2023-04-20T06:36:52.947Z,18
2023-04-20T06:37:52.980Z,16.7143
2023-04-20T06:38:53.021Z,17.4286
2023-04-20T06:39:53.049Z,16.4286
2023-04-20T06:40:53.096Z,17.3571
2023-04-20T06:41:53.159Z,16.5
2023-04-20T06:42:53.183Z,16.5
2023-04-20T06:43:53.231Z,17
2023-04-20T06:44:53.273Z,16.1429
2023-04-20T06:45:53.306Z,16.5
2023-04-20T06:46:53.398Z,17.1429
2023-04-20T06:47:53.419Z,15.8571
2023-04-20T06:48:53.417Z,16.9286
2023-04-20T06:49:53.451Z,17
2023-04-20T06:50:53.490Z,16.9286
2023-04-20T06:51:53.556Z,17
2023-04-20T06:52:53.582Z,16.8571
2023-04-20T06:53:53.626Z,17.5
2023-04-20T06:54:53.654Z,17.3571
2023-04-20T06:55:53.716Z,18
2023-04-20T06:56:53.744Z,17.4286
2023-04-20T06:57:53.787Z,17
2023-04-20T06:58:54.194Z,16.2143
2023-04-20T06:59:53.859Z,16.8571
2023-04-20T07:00:53.895Z,17.4286
2023-04-20T07:01:53.963Z,16.7143
2023-04-20T07:02:54.024Z,17
2023-04-20T07:03:54.328Z,15.9286
2023-04-20T07:04:54.206Z,16.4286
2023-04-20T07:05:54.131Z,16.4286
2023-04-20T07:06:54.562Z,16.3571
2023-04-20T07:07:54.177Z,17
2023-04-20T07:08:54.213Z,17
2023-04-20T07:09:54.253Z,16.9286
2023-04-20T07:10:54.361Z,17.8571
2023-04-20T07:11:54.324Z,17.4286
2023-04-20T07:12:54.367Z,16.6429
2023-04-20T07:13:54.400Z,16.1429
2023-04-20T07:14:54.454Z,17.8571
2023-04-20T07:15:54.515Z,17.3571
2023-04-20T07:16:54.580Z,17.4286
2023-04-20T07:17:54.666Z,16.8571
2023-04-20T07:18:54.616Z,17.1429
2023-04-20T07:19:54.659Z,16.6429
2023-04-20T07:20:54.708Z,16.6429
2023-04-20T07:21:54.750Z,16.8571
2023-04-20T07:22:54.792Z,17.6429
2023-04-20T07:23:54.836Z,17.4286
2023-04-20T07:24:54.876Z,16.5
2023-04-20T07:25:54.917Z,17.4286
2023-04-20T07:26:54.950Z,17.1429
2023-04-20T07:27:54.993Z,17.1429
2023-04-20T07:28:55.042Z,16.7143
2023-04-20T07:29:55.075Z,16.8571
2023-04-20T07:30:55.111Z,17
2023-04-20T07:31:55.198Z,16.7143
2023-04-20T07:32:55.209Z,17
2023-04-20T07:33:55.228Z,15.6429
2023-04-20T07:34:55.278Z,18.1429
2023-04-20T07:35:55.300Z,17.4286
2023-04-20T07:36:55.351Z,17.5
2023-04-20T07:37:55.380Z,16.4286
2023-04-20T07:38:55.424Z,15.6429
2023-04-20T07:39:55.463Z,17.5
2023-04-20T07:40:55.498Z,17.4286
2023-04-20T07:41:55.532Z,17.4286
2023-04-20T07:42:55.587Z,17.2143
2023-04-20T07:43:55.620Z,17
2023-04-20T07:44:55.654Z,16.8571
2023-04-20T07:45:55.792Z,16.4286
2023-04-20T07:46:55.740Z,17.1429
2023-04-20T07:47:55.895Z,17.1429
2023-04-20T07:48:55.845Z,17.7143
2023-04-20T07:49:55.870Z,16.8571
2023-04-20T07:50:55.901Z,16.6429
2023-04-20T07:52:06.011Z,17.1429
2023-04-20T07:52:55.997Z,16.7143
2023-04-20T07:53:56.031Z,17.5
2023-04-20T07:54:56.068Z,16.9286
2023-04-20T07:55:56.298Z,17.5
2023-04-20T07:56:56.392Z,17
2023-04-20T07:57:56.197Z,17.1429
2023-04-20T07:58:56.230Z,16.3571
2023-04-20T07:59:56.305Z,16.4286
2023-04-20T08:00:56.323Z,15.9286
2023-04-20T08:01:56.471Z,16.8571
2023-04-20T08:02:56.590Z,16.9286
2023-04-20T08:03:56.613Z,17.4286
2023-04-20T08:04:56.722Z,16.4286
2023-04-20T08:05:56.661Z,15.4286
2023-04-20T08:06:56.552Z,17.4286
2023-04-20T08:07:56.596Z,16
2023-04-20T08:08:56.640Z,16.2143
2023-04-20T08:09:56.677Z,15.1429
2023-04-20T08:10:56.712Z,15.5
2023-04-20T08:11:56.790Z,16.3571
2023-04-20T08:12:56.802Z,15.9286
2023-04-20T08:13:58.447Z,16
2023-04-20T08:14:56.927Z,17.1429
2023-04-20T08:15:56.945Z,16.7143
2023-04-20T08:16:56.956Z,15.3571
2023-04-20T08:17:57.186Z,15.1429
2023-04-20T08:19:57.094Z,15.4286
2023-04-20T08:20:57.134Z,15
2023-04-20T08:21:57.168Z,15.4286
2023-04-20T08:22:57.202Z,15.7143
2023-04-20T08:23:57.232Z,15.2143
2023-04-20T08:24:57.341Z,15.8571
2023-04-20T08:25:57.313Z,14.6429
2023-04-20T08:26:57.351Z,15.4286
2023-04-20T08:27:57.379Z,15.2143
2023-04-20T08:28:57.429Z,14.3571
2023-04-20T08:29:57.461Z,15.3571
2023-04-20T08:30:57.549Z,15.2143
2023-04-20T08:31:57.575Z,15.5
2023-04-20T08:32:57.670Z,15.4286
2023-04-20T08:33:57.635Z,14.8571
2023-04-20T08:34:57.685Z,15.2143
2023-04-20T08:35:57.715Z,16.4286
2023-04-20T08:36:57.754Z,15.6429
2023-04-20T08:37:57.798Z,15.9286
2023-04-20T08:38:57.850Z,14.7143
2023-04-20T08:39:57.882Z,14.9286
2023-04-20T08:40:57.917Z,15.9286
2023-04-20T08:41:57.951Z,14.8571
2023-04-20T08:42:57.998Z,15.2143
2023-04-20T08:43:58.038Z,14.6429
2023-04-20T08:44:58.097Z,14.2143
2023-04-20T08:45:58.117Z,14.2143
2023-04-20T08:46:58.310Z,15
2023-04-20T08:47:58.224Z,15
2023-04-20T08:48:58.243Z,16.4286
2023-04-20T08:49:58.282Z,15.5
2023-04-20T08:50:58.326Z,15.1429
2023-04-20T08:51:58.376Z,15.8571
2023-04-20T08:52:58.411Z,15.2143
2023-04-20T08:53:58.451Z,14.4286
2023-04-20T08:54:58.488Z,14.6429
2023-04-20T08:55:58.531Z,15.6429
2023-04-20T08:56:58.556Z,14.9286
2023-04-20T08:57:58.600Z,15.6429
2023-04-20T08:58:58.636Z,16
2023-04-20T08:59:58.700Z,15.1429
2023-04-20T09:00:58.710Z,15.3571
2023-04-20T09:01:58.836Z,16.1429
2023-04-20T09:02:59.082Z,15.2143
2023-04-20T09:03:59.015Z,15.6429
2023-04-20T09:04:58.893Z,15.4286
2023-04-20T09:05:58.910Z,16.4286
2023-04-20T09:06:58.950Z,17.9286
2023-04-20T09:07:59.020Z,18.3571
2023-04-20T09:08:59.025Z,18.4286
2023-04-20T09:09:59.069Z,18.8571
2023-04-20T09:10:59.095Z,18.7143
2023-04-20T09:11:59.138Z,19.6429
2023-04-20T09:12:59.175Z,20
2023-04-20T09:13:59.224Z,19.4286
2023-04-20T09:14:59.257Z,18.2143
2023-04-20T09:15:59.342Z,18.9286
2023-04-20T09:16:59.349Z,19.2143
2023-04-20T09:17:59.438Z,18.3571
2023-04-20T09:18:59.410Z,18.8571
2023-04-20T09:19:59.470Z,19.9286
2023-04-20T09:20:59.503Z,19.2143
2023-04-20T09:21:59.550Z,19.2143
2023-04-20T09:22:59.585Z,19
2023-04-20T09:23:59.643Z,18.2143
2023-04-20T09:24:59.662Z,19.4286
2023-04-20T09:25:59.715Z,18
2023-04-20T09:26:59.745Z,16.8571
2023-04-20T09:27:59.783Z,17.7143
2023-04-20T09:28:59.819Z,18.1429
2023-04-20T09:29:59.865Z,17.8571
2023-04-20T09:30:59.912Z,17.9286
2023-04-20T09:31:59.994Z,16.6429
2023-04-20T09:33:00.042Z,18.1429
2023-04-20T09:34:00.064Z,16.9286
2023-04-20T09:35:00.112Z,16.9286
2023-04-20T09:36:00.121Z,16.9286
2023-04-20T09:37:00.144Z,17.4286
2023-04-20T09:38:00.180Z,18
2023-04-20T09:39:00.236Z,17.9286
2023-04-20T09:40:00.317Z,16.9286
2023-04-20T09:41:00.319Z,16.5
2023-04-20T09:42:00.348Z,17.1429
2023-04-20T09:43:00.382Z,15.9286
2023-04-20T09:44:00.433Z,16.5
2023-04-20T09:45:00.469Z,16
2023-04-20T09:46:00.558Z,16.1429
2023-04-20T09:47:00.562Z,16.1429
2023-04-20T09:48:00.684Z,16.3571
2023-04-20T09:49:00.649Z,15
2023-04-20T09:50:14.618Z,15.2143
2023-04-20T09:51:00.730Z,17.1429
2023-04-20T09:52:00.765Z,16.8571
2023-04-20T09:53:00.805Z,16.7143
2023-04-20T09:54:00.845Z,16.5
2023-04-20T09:55:00.885Z,16.7143
2023-04-20T09:56:00.931Z,16.2143
2023-04-20T09:57:00.969Z,16.1429
2023-04-20T09:58:01.005Z,16.3571
2023-04-20T09:59:01.106Z,17.4286
2023-04-20T10:00:01.103Z,16.5
2023-04-20T10:01:01.148Z,16.7143
2023-04-20T10:02:01.290Z,17.4286
2023-04-20T10:03:01.426Z,16.8571
2023-04-20T10:04:01.499Z,15.7143
2023-04-20T10:05:01.344Z,16.4286
2023-04-20T10:07:01.366Z,15.6429
2023-04-20T10:08:01.400Z,15.8571
2023-04-20T10:09:01.453Z,14.8571
2023-04-20T10:10:01.476Z,16.3571
2023-04-20T10:11:01.517Z,16
2023-04-20T10:12:01.571Z,16.4286
2023-04-20T10:13:01.606Z,16.2143
2023-04-20T10:14:01.634Z,16.3571
2023-04-20T10:15:01.668Z,15.4286
2023-04-20T10:16:01.728Z,15.9286
2023-04-20T10:17:01.982Z,16.3571
2023-04-20T10:18:01.856Z,16.9286
2023-04-20T10:19:01.892Z,17.4286
2023-04-20T10:20:01.855Z,16.3571
2023-04-20T10:21:01.901Z,16.8571
2023-04-20T10:22:01.940Z,15.8571
2023-04-20T10:23:01.995Z,15.5
2023-04-20T10:24:02.023Z,16.1429
2023-04-20T10:25:02.056Z,14.8571
2023-04-20T10:26:02.125Z,15.1429
2023-04-20T10:27:02.147Z,15.3571
2023-04-20T10:28:02.194Z,15.4286
2023-04-20T10:29:02.221Z,15.8571
2023-04-20T10:30:02.283Z,14.8571
2023-04-20T10:31:02.384Z,15.9286
2023-04-20T10:32:02.347Z,15.5
2023-04-20T10:33:02.464Z,16.4286
2023-04-20T10:34:02.434Z,14.7143
2023-04-20T10:35:02.488Z,15.2143
2023-04-20T10:36:02.503Z,15.4286
2023-04-20T10:37:02.547Z,15.5
2023-04-20T10:38:02.579Z,15.9286
2023-04-20T10:39:02.637Z,15.8571
2023-04-20T10:40:03.403Z,14.7143
2023-04-20T10:41:02.725Z,15.2143
2023-04-20T10:42:02.752Z,16
2023-04-20T10:43:02.789Z,15
2023-04-20T10:44:02.859Z,15.2143
2023-04-20T10:45:02.874Z,16.1429
2023-04-20T10:46:02.972Z,14.4286
2023-04-20T10:47:02.953Z,16.3571
2023-04-20T10:48:03.085Z,15.6429
2023-04-20T10:49:03.043Z,15.1429
2023-04-20T10:50:03.102Z,15.3571
2023-04-20T10:51:03.129Z,16
2023-04-20T10:52:03.180Z,15.5
2023-04-20T10:53:03.205Z,15.2143
2023-04-20T10:54:03.243Z,16.3571
2023-04-20T10:55:03.335Z,15
2023-04-20T10:56:03.417Z,15.8571
2023-04-20T10:58:03.403Z,16.1429
2023-04-20T10:59:03.455Z,15.6429
2023-04-20T11:00:03.506Z,15.5
2023-04-20T11:01:03.534Z,16.2143
2023-04-20T11:02:03.666Z,16.8571
2023-04-20T11:03:03.725Z,16.7143
2023-04-20T11:04:03.689Z,16.2143
2023-04-20T11:05:03.729Z,15.6429
2023-04-20T11:06:04.249Z,15.3571
2023-04-20T11:07:03.764Z,15.6429
2023-04-20T11:08:03.813Z,15.8571
2023-04-20T11:09:03.855Z,15.1429
2023-04-20T11:10:03.891Z,15.6429
2023-04-20T11:11:03.928Z,15.9286
2023-04-20T11:12:04.033Z,16
2023-04-20T11:13:04.019Z,15.7143
2023-04-20T11:14:04.056Z,15.4286
2023-04-20T11:15:04.089Z,15.4286
2023-04-20T11:16:04.168Z,14.6429
2023-04-20T11:17:04.194Z,15.4286
2023-04-20T11:18:04.313Z,15.7143
2023-04-20T11:19:04.250Z,15.1429
2023-04-20T11:20:04.348Z,14.6429
2023-04-20T11:21:04.331Z,15.3571
2023-04-20T11:22:04.381Z,15.6429
2023-04-20T11:23:04.422Z,15.5
2023-04-20T11:24:04.456Z,15.2143
2023-04-20T11:25:04.518Z,15.6429
2023-04-20T11:26:04.545Z,15.5
2023-04-20T11:27:04.749Z,15.8571
2023-04-20T11:28:04.625Z,14.1429
2023-04-20T11:29:04.676Z,15.4286
2023-04-20T11:30:04.703Z,14.8571
2023-04-20T11:31:04.755Z,14.2143
2023-04-20T11:32:04.905Z,15.9286
2023-04-20T11:33:04.958Z,15.6429
2023-04-20T11:34:06.648Z,15.5
2023-04-20T11:35:06.965Z,15.6429
2023-04-20T11:36:04.944Z,15.6429
2023-04-20T11:37:04.996Z,15.6429
2023-04-20T11:38:05.057Z,16
2023-04-20T11:39:05.067Z,16.8571
2023-04-20T11:40:05.113Z,15.2143
2023-04-20T11:41:05.166Z,15.6429
2023-04-20T11:42:05.208Z,15.5
2023-04-20T11:43:05.231Z,15.5
2023-04-20T11:44:06.308Z,16.6429
2023-04-20T11:46:05.382Z,16
2023-04-20T11:47:05.396Z,16
2023-04-20T11:48:05.501Z,15.2143
2023-04-20T11:49:05.470Z,15.9286
2023-04-20T11:50:05.505Z,15.3571
2023-04-20T11:51:05.550Z,15
2023-04-20T11:52:05.585Z,14.5
2023-04-20T11:53:05.632Z,15.3571
2023-04-20T11:54:05.660Z,16.1429
2023-04-20T11:55:05.708Z,15.4286
2023-04-20T11:56:05.747Z,17.1429
2023-04-20T11:57:05.780Z,16.7143
2023-04-20T11:58:05.816Z,16.8571
2023-04-20T11:59:05.863Z,14.5
2023-04-20T12:00:05.901Z,15
2023-04-20T12:01:05.941Z,17.9286
2023-04-20T12:02:06.050Z,16.2143
2023-04-20T12:03:06.203Z,16
2023-04-20T12:04:06.236Z,15
2023-04-20T12:05:06.171Z,16.2143
2023-04-20T12:06:06.148Z,19.8571
2023-04-20T12:07:06.199Z,16.4286
2023-04-20T12:08:06.238Z,15.4286
2023-04-20T12:09:06.371Z,16
2023-04-20T12:10:06.321Z,16.9286
2023-04-20T12:11:06.353Z,16.2143
2023-04-20T12:12:06.395Z,16.1429
2023-04-20T12:13:06.440Z,16.2143
2023-04-20T12:14:06.481Z,16.9286
2023-04-20T12:15:06.508Z,15.2143
2023-04-20T12:16:06.637Z,15.4286
2023-04-20T12:17:06.586Z,17.2143
2023-04-20T12:18:06.722Z,21.1429
2023-04-20T12:19:06.677Z,16.6429
2023-04-20T12:20:06.706Z,15.7143
2023-04-20T12:21:06.744Z,16
2023-04-20T12:22:06.792Z,15.2143
2023-04-20T12:23:06.820Z,14.9286
2023-04-20T12:24:06.860Z,17.8571
2023-04-20T12:25:06.897Z,19.7143
2023-04-20T12:26:06.942Z,15.7143
2023-04-20T12:27:06.961Z,15.1429
2023-04-20T12:28:07.093Z,15.4286
2023-04-20T12:30:07.092Z,14.5
2023-04-20T12:31:07.137Z,16.8571
2023-04-20T12:32:07.193Z,14.3571